sensor_id;sensor_type;location;lat;lon;timestamp;P1;durP1;ratioP1;P2;durP2;ratioP2
5217;SDS011;26539;51.064;6.346;2023-05-10T00:02:07;21.27;;;14.90;;
5217;SDS011;26539;51.064;6.346;2023-05-10T00:04:32;20.37;;;14.60;;
5217;SDS011;26539;51.064;6.346;2023-05-10T00:06:58;24.40;;;14.83;;
5217;SDS011;26539;51.064;6.346;2023-05-10T00:09:24;21.47;;;15.27;;
5217;SDS011;26539;51.064;6.346;2023-05-10T00:11:49;21.90;;;15.53;;
5217;SDS011;26539;51.064;6.346;2023-05-10T00:14:15;22.73;;;15.33;;
5217;SDS011;26539;51.064;6.346;2023-05-10T00:16:41;23.10;;;15.13;;
5217;SDS011;26539;51.064;6.346;2023-05-10T00:19:06;23.50;;;15.13;;
5217;SDS011;26539;51.064;6.346;2023-05-10T00:21:32;21.50;;;15.13;;
5217;SDS011;26539;51.064;6.346;2023-05-10T00:23:58;24.57;;;15.27;;
5217;SDS011;26539;51.064;6.346;2023-05-10T00:26:24;23.60;;;15.87;;
5217;SDS011;26539;51.064;6.346;2023-05-10T00:28:49;22.23;;;15.67;;
5217;SDS011;26539;51.064;6.346;2023-05-10T00:31:15;20.70;;;14.83;;
5217;SDS011;26539;51.064;6.346;2023-05-10T00:33:40;21.67;;;15.53;;
5217;SDS011;26539;51.064;6.346;2023-05-10T00:36:06;21.67;;;16.23;;
5217;SDS011;26539;51.064;6.346;2023-05-10T00:38:32;20.60;;;15.03;;
5217;SDS011;26539;51.064;6.346;2023-05-10T00:40:58;22.33;;;16.90;;
5217;SDS011;26539;51.064;6.346;2023-05-10T00:43:24;22.90;;;15.67;;
5217;SDS011;26539;51.064;6.346;2023-05-10T00:45:49;24.60;;;16.00;;
5217;SDS011;26539;51.064;6.346;2023-05-10T00:48:15;22.67;;;15.80;;
5217;SDS011;26539;51.064;6.346;2023-05-10T00:50:41;21.60;;;14.53;;
5217;SDS011;26539;51.064;6.346;2023-05-10T00:53:07;22.43;;;14.47;;
5217;SDS011;26539;51.064;6.346;2023-05-10T00:55:33;25.90;;;17.17;;
5217;SDS011;26539;51.064;6.346;2023-05-10T00:57:59;22.90;;;15.17;;
5217;SDS011;26539;51.064;6.346;2023-05-10T01:00:25;25.13;;;15.23;;
5217;SDS011;26539;51.064;6.346;2023-05-10T01:02:50;23.93;;;16.17;;
5217;SDS011;26539;51.064;6.346;2023-05-10T01:05:18;24.10;;;14.77;;
5217;SDS011;26539;51.064;6.346;2023-05-10T01:07:43;23.00;;;13.97;;
5217;SDS011;26539;51.064;6.346;2023-05-10T01:10:09;20.47;;;15.03;;
5217;SDS011;26539;51.064;6.346;2023-05-10T01:12:35;22.97;;;14.40;;
5217;SDS011;26539;51.064;6.346;2023-05-10T01:15:04;22.47;;;13.93;;
5217;SDS011;26539;51.064;6.346;2023-05-10T01:17:31;22.37;;;14.93;;
5217;SDS011;26539;51.064;6.346;2023-05-10T01:19:58;30.67;;;16.40;;
5217;SDS011;26539;51.064;6.346;2023-05-10T01:22:29;24.23;;;15.37;;
5217;SDS011;26539;51.064;6.346;2023-05-10T01:25:11;27.40;;;15.20;;
5217;SDS011;26539;51.064;6.346;2023-05-10T01:38:38;27.97;;;15.60;;
5217;SDS011;26539;51.064;6.346;2023-05-10T01:41:15;20.07;;;14.10;;
5217;SDS011;26539;51.064;6.346;2023-05-10T01:46:49;25.03;;;15.80;;
5217;SDS011;26539;51.064;6.346;2023-05-10T01:49:23;20.30;;;13.70;;
5217;SDS011;26539;51.064;6.346;2023-05-10T01:51:51;22.13;;;13.40;;
5217;SDS011;26539;51.064;6.346;2023-05-10T01:54:21;18.87;;;13.13;;
5217;SDS011;26539;51.064;6.346;2023-05-10T01:56:50;16.10;;;11.97;;
5217;SDS011;26539;51.064;6.346;2023-05-10T01:59:20;18.57;;;11.27;;
5217;SDS011;26539;51.064;6.346;2023-05-10T02:01:48;18.87;;;11.60;;
5217;SDS011;26539;51.064;6.346;2023-05-10T02:04:16;19.23;;;12.40;;
5217;SDS011;26539;51.064;6.346;2023-05-10T02:06:44;17.63;;;12.90;;
5217;SDS011;26539;51.064;6.346;2023-05-10T02:09:11;17.37;;;12.17;;
5217;SDS011;26539;51.064;6.346;2023-05-10T02:11:39;18.33;;;12.27;;
5217;SDS011;26539;51.064;6.346;2023-05-10T02:14:07;20.37;;;14.10;;
5217;SDS011;26539;51.064;6.346;2023-05-10T02:16:35;18.93;;;12.50;;
5217;SDS011;26539;51.064;6.346;2023-05-10T02:19:02;19.07;;;12.90;;
5217;SDS011;26539;51.064;6.346;2023-05-10T02:21:29;21.40;;;14.23;;
5217;SDS011;26539;51.064;6.346;2023-05-10T02:23:56;19.37;;;13.67;;
5217;SDS011;26539;51.064;6.346;2023-05-10T02:26:23;19.80;;;13.57;;
5217;SDS011;26539;51.064;6.346;2023-05-10T02:28:51;24.83;;;14.10;;
5217;SDS011;26539;51.064;6.346;2023-05-10T02:31:18;21.07;;;13.80;;
5217;SDS011;26539;51.064;6.346;2023-05-10T02:33:44;17.20;;;12.43;;
5217;SDS011;26539;51.064;6.346;2023-05-10T02:36:11;19.77;;;12.83;;
5217;SDS011;26539;51.064;6.346;2023-05-10T02:38:38;19.00;;;13.13;;
5217;SDS011;26539;51.064;6.346;2023-05-10T02:41:05;17.40;;;12.83;;
5217;SDS011;26539;51.064;6.346;2023-05-10T02:43:33;19.10;;;13.07;;
5217;SDS011;26539;51.064;6.346;2023-05-10T02:46:00;22.40;;;14.40;;
5217;SDS011;26539;51.064;6.346;2023-05-10T02:48:26;20.30;;;15.00;;
5217;SDS011;26539;51.064;6.346;2023-05-10T02:50:52;21.33;;;14.40;;
5217;SDS011;26539;51.064;6.346;2023-05-10T02:53:22;24.27;;;15.30;;
5217;SDS011;26539;51.064;6.346;2023-05-10T02:55:53;25.03;;;15.90;;
5217;SDS011;26539;51.064;6.346;2023-05-10T02:58:22;24.57;;;15.20;;
5217;SDS011;26539;51.064;6.346;2023-05-10T03:00:47;26.50;;;16.87;;
5217;SDS011;26539;51.064;6.346;2023-05-10T03:03:13;26.10;;;17.57;;
5217;SDS011;26539;51.064;6.346;2023-05-10T03:05:38;26.67;;;17.77;;
5217;SDS011;26539;51.064;6.346;2023-05-10T03:08:04;29.83;;;18.30;;
5217;SDS011;26539;51.064;6.346;2023-05-10T03:10:30;27.87;;;18.87;;
5217;SDS011;26539;51.064;6.346;2023-05-10T03:15:59;28.40;;;18.07;;
5217;SDS011;26539;51.064;6.346;2023-05-10T03:18:42;26.27;;;18.77;;
5217;SDS011;26539;51.064;6.346;2023-05-10T03:21:11;30.63;;;18.43;;
5217;SDS011;26539;51.064;6.346;2023-05-10T03:23:41;25.00;;;17.43;;
5217;SDS011;26539;51.064;6.346;2023-05-10T03:26:12;29.30;;;18.57;;
5217;SDS011;26539;51.064;6.346;2023-05-10T03:28:42;28.13;;;17.40;;
5217;SDS011;26539;51.064;6.346;2023-05-10T03:31:08;20.77;;;15.90;;
5217;SDS011;26539;51.064;6.346;2023-05-10T03:33:34;24.90;;;14.23;;
5217;SDS011;26539;51.064;6.346;2023-05-10T03:36:00;19.77;;;15.13;;
5217;SDS011;26539;51.064;6.346;2023-05-10T03:38:25;25.67;;;15.67;;
5217;SDS011;26539;51.064;6.346;2023-05-10T03:40:51;14.90;;;13.10;;
5217;SDS011;26539;51.064;6.346;2023-05-10T03:43:16;24.50;;;13.07;;
5217;SDS011;26539;51.064;6.346;2023-05-10T03:45:42;18.73;;;13.77;;
5217;SDS011;26539;51.064;6.346;2023-05-10T03:48:07;30.40;;;14.20;;
5217;SDS011;26539;51.064;6.346;2023-05-10T03:50:33;21.80;;;13.40;;
5217;SDS011;26539;51.064;6.346;2023-05-10T03:52:58;18.87;;;13.50;;
5217;SDS011;26539;51.064;6.346;2023-05-10T03:55:24;20.07;;;12.23;;
5217;SDS011;26539;51.064;6.346;2023-05-10T03:57:49;21.40;;;13.90;;
5217;SDS011;26539;51.064;6.346;2023-05-10T04:00:15;17.80;;;12.57;;
5217;SDS011;26539;51.064;6.346;2023-05-10T04:02:41;21.43;;;13.23;;
5217;SDS011;26539;51.064;6.346;2023-05-10T04:05:06;15.57;;;12.53;;
5217;SDS011;26539;51.064;6.346;2023-05-10T04:07:32;22.40;;;12.50;;
5217;SDS011;26539;51.064;6.346;2023-05-10T04:09:58;19.20;;;13.83;;
5217;SDS011;26539;51.064;6.346;2023-05-10T04:12:23;15.77;;;11.90;;
5217;SDS011;26539;51.064;6.346;2023-05-10T04:14:49;16.73;;;11.60;;
5217;SDS011;26539;51.064;6.346;2023-05-10T04:17:14;20.73;;;13.30;;
5217;SDS011;26539;51.064;6.346;2023-05-10T04:19:40;15.27;;;11.47;;
5217;SDS011;26539;51.064;6.346;2023-05-10T04:22:05;18.43;;;12.27;;
5217;SDS011;26539;51.064;6.346;2023-05-10T04:24:31;16.17;;;11.40;;
5217;SDS011;26539;51.064;6.346;2023-05-10T04:26:56;20.13;;;12.40;;
5217;SDS011;26539;51.064;6.346;2023-05-10T04:29:22;20.10;;;13.27;;
5217;SDS011;26539;51.064;6.346;2023-05-10T04:31:47;20.93;;;13.20;;
5217;SDS011;26539;51.064;6.346;2023-05-10T04:34:13;19.57;;;12.60;;
5217;SDS011;26539;51.064;6.346;2023-05-10T04:36:39;18.17;;;13.10;;
5217;SDS011;26539;51.064;6.346;2023-05-10T04:39:04;18.90;;;13.37;;
5217;SDS011;26539;51.064;6.346;2023-05-10T04:41:30;25.87;;;14.47;;
5217;SDS011;26539;51.064;6.346;2023-05-10T04:43:55;19.30;;;13.30;;
5217;SDS011;26539;51.064;6.346;2023-05-10T04:46:21;22.00;;;15.07;;
5217;SDS011;26539;51.064;6.346;2023-05-10T04:48:47;26.87;;;15.23;;
5217;SDS011;26539;51.064;6.346;2023-05-10T04:51:12;23.17;;;13.13;;
5217;SDS011;26539;51.064;6.346;2023-05-10T04:53:38;20.77;;;13.63;;
5217;SDS011;26539;51.064;6.346;2023-05-10T04:56:04;26.00;;;15.47;;
5217;SDS011;26539;51.064;6.346;2023-05-10T04:58:30;21.20;;;13.70;;
5217;SDS011;26539;51.064;6.346;2023-05-10T05:00:55;26.10;;;14.00;;
5217;SDS011;26539;51.064;6.346;2023-05-10T05:03:21;24.03;;;15.87;;
5217;SDS011;26539;51.064;6.346;2023-05-10T05:05:47;25.47;;;14.83;;
5217;SDS011;26539;51.064;6.346;2023-05-10T05:08:12;24.30;;;15.83;;
5217;SDS011;26539;51.064;6.346;2023-05-10T05:10:38;30.33;;;15.60;;
5217;SDS011;26539;51.064;6.346;2023-05-10T05:13:03;23.77;;;14.53;;
5217;SDS011;26539;51.064;6.346;2023-05-10T05:15:29;25.20;;;16.97;;
5217;SDS011;26539;51.064;6.346;2023-05-10T05:17:55;27.33;;;15.13;;
5217;SDS011;26539;51.064;6.346;2023-05-10T05:20:21;28.37;;;17.00;;
5217;SDS011;26539;51.064;6.346;2023-05-10T05:22:46;34.87;;;16.73;;
5217;SDS011;26539;51.064;6.346;2023-05-10T05:25:12;24.97;;;16.50;;
5217;SDS011;26539;51.064;6.346;2023-05-10T05:27:38;33.10;;;15.83;;
5217;SDS011;26539;51.064;6.346;2023-05-10T05:30:03;29.53;;;18.63;;
5217;SDS011;26539;51.064;6.346;2023-05-10T05:32:29;32.60;;;18.23;;
5217;SDS011;26539;51.064;6.346;2023-05-10T05:34:55;29.80;;;18.23;;
5217;SDS011;26539;51.064;6.346;2023-05-10T05:37:21;32.27;;;18.10;;
5217;SDS011;26539;51.064;6.346;2023-05-10T05:39:47;28.60;;;17.43;;
5217;SDS011;26539;51.064;6.346;2023-05-10T05:42:13;31.97;;;21.20;;
5217;SDS011;26539;51.064;6.346;2023-05-10T05:44:39;35.60;;;19.00;;
5217;SDS011;26539;51.064;6.346;2023-05-10T05:47:05;38.07;;;17.77;;
5217;SDS011;26539;51.064;6.346;2023-05-10T05:49:31;30.30;;;18.53;;
5217;SDS011;26539;51.064;6.346;2023-05-10T05:52:03;29.20;;;17.60;;
5217;SDS011;26539;51.064;6.346;2023-05-10T05:54:29;28.90;;;18.93;;
5217;SDS011;26539;51.064;6.346;2023-05-10T05:56:59;32.33;;;19.63;;
5217;SDS011;26539;51.064;6.346;2023-05-10T05:59:25;28.83;;;18.13;;
5217;SDS011;26539;51.064;6.346;2023-05-10T06:01:51;35.67;;;20.43;;
5217;SDS011;26539;51.064;6.346;2023-05-10T06:04:17;31.90;;;18.93;;
5217;SDS011;26539;51.064;6.346;2023-05-10T06:06:42;34.33;;;18.33;;
5217;SDS011;26539;51.064;6.346;2023-05-10T06:09:08;26.20;;;16.77;;
5217;SDS011;26539;51.064;6.346;2023-05-10T06:11:34;31.70;;;18.73;;
5217;SDS011;26539;51.064;6.346;2023-05-10T06:14:00;27.80;;;17.70;;
5217;SDS011;26539;51.064;6.346;2023-05-10T06:16:26;28.07;;;17.63;;
5217;SDS011;26539;51.064;6.346;2023-05-10T06:18:52;34.07;;;16.53;;
5217;SDS011;26539;51.064;6.346;2023-05-10T06:21:18;30.23;;;18.10;;
5217;SDS011;26539;51.064;6.346;2023-05-10T06:23:44;31.20;;;18.30;;
5217;SDS011;26539;51.064;6.346;2023-05-10T06:26:09;41.57;;;20.07;;
5217;SDS011;26539;51.064;6.346;2023-05-10T06:28:35;32.00;;;19.87;;
5217;SDS011;26539;51.064;6.346;2023-05-10T06:31:03;34.37;;;18.80;;
5217;SDS011;26539;51.064;6.346;2023-05-10T06:33:29;36.30;;;20.10;;
5217;SDS011;26539;51.064;6.346;2023-05-10T06:35:54;34.93;;;17.70;;
5217;SDS011;26539;51.064;6.346;2023-05-10T06:38:20;31.33;;;18.17;;
5217;SDS011;26539;51.064;6.346;2023-05-10T06:40:45;33.90;;;18.43;;
5217;SDS011;26539;51.064;6.346;2023-05-10T06:43:11;30.27;;;19.43;;
5217;SDS011;26539;51.064;6.346;2023-05-10T06:45:36;31.93;;;19.70;;
5217;SDS011;26539;51.064;6.346;2023-05-10T06:48:02;35.30;;;20.90;;
5217;SDS011;26539;51.064;6.346;2023-05-10T06:50:27;37.53;;;20.70;;
5217;SDS011;26539;51.064;6.346;2023-05-10T06:52:53;34.40;;;19.90;;
5217;SDS011;26539;51.064;6.346;2023-05-10T06:55:19;31.10;;;19.27;;
5217;SDS011;26539;51.064;6.346;2023-05-10T06:57:44;35.40;;;20.97;;
5217;SDS011;26539;51.064;6.346;2023-05-10T07:00:10;27.17;;;18.73;;
5217;SDS011;26539;51.064;6.346;2023-05-10T07:02:36;34.90;;;18.80;;
5217;SDS011;26539;51.064;6.346;2023-05-10T07:05:01;34.43;;;21.23;;
5217;SDS011;26539;51.064;6.346;2023-05-10T07:07:27;35.93;;;21.37;;
5217;SDS011;26539;51.064;6.346;2023-05-10T07:09:53;34.50;;;20.80;;
5217;SDS011;26539;51.064;6.346;2023-05-10T07:12:19;39.03;;;22.53;;
5217;SDS011;26539;51.064;6.346;2023-05-10T07:14:44;37.60;;;21.63;;
5217;SDS011;26539;51.064;6.346;2023-05-10T07:17:10;45.47;;;20.90;;
5217;SDS011;26539;51.064;6.346;2023-05-10T07:19:36;40.70;;;23.83;;
5217;SDS011;26539;51.064;6.346;2023-05-10T07:22:01;39.90;;;23.43;;
5217;SDS011;26539;51.064;6.346;2023-05-10T07:24:27;34.43;;;21.67;;
5217;SDS011;26539;51.064;6.346;2023-05-10T07:26:53;40.47;;;22.90;;
5217;SDS011;26539;51.064;6.346;2023-05-10T07:29:18;36.60;;;23.30;;
5217;SDS011;26539;51.064;6.346;2023-05-10T07:31:44;37.97;;;20.67;;
5217;SDS011;26539;51.064;6.346;2023-05-10T07:34:09;42.43;;;24.43;;
5217;SDS011;26539;51.064;6.346;2023-05-10T07:36:34;35.47;;;21.80;;
5217;SDS011;26539;51.064;6.346;2023-05-10T07:39:00;36.47;;;22.80;;
5217;SDS011;26539;51.064;6.346;2023-05-10T07:41:26;35.97;;;22.50;;
5217;SDS011;26539;51.064;6.346;2023-05-10T07:43:52;37.03;;;21.90;;
5217;SDS011;26539;51.064;6.346;2023-05-10T07:46:17;40.07;;;22.70;;
5217;SDS011;26539;51.064;6.346;2023-05-10T07:48:44;38.53;;;21.87;;
5217;SDS011;26539;51.064;6.346;2023-05-10T07:51:10;39.93;;;22.23;;
5217;SDS011;26539;51.064;6.346;2023-05-10T07:53:36;39.50;;;21.20;;
5217;SDS011;26539;51.064;6.346;2023-05-10T07:56:19;36.40;;;22.70;;
5217;SDS011;26539;51.064;6.346;2023-05-10T07:58:46;33.10;;;20.50;;
5217;SDS011;26539;51.064;6.346;2023-05-10T08:01:12;34.07;;;20.43;;
5217;SDS011;26539;51.064;6.346;2023-05-10T08:03:37;33.13;;;22.70;;
5217;SDS011;26539;51.064;6.346;2023-05-10T08:06:03;34.13;;;22.60;;
5217;SDS011;26539;51.064;6.346;2023-05-10T08:08:29;37.30;;;22.37;;
5217;SDS011;26539;51.064;6.346;2023-05-10T08:10:54;37.60;;;22.80;;
5217;SDS011;26539;51.064;6.346;2023-05-10T08:13:20;32.37;;;20.27;;
5217;SDS011;26539;51.064;6.346;2023-05-10T08:15:46;35.70;;;21.23;;
5217;SDS011;26539;51.064;6.346;2023-05-10T08:18:12;35.33;;;20.00;;
5217;SDS011;26539;51.064;6.346;2023-05-10T08:20:37;31.67;;;19.80;;
5217;SDS011;26539;51.064;6.346;2023-05-10T08:23:03;28.17;;;17.50;;
5217;SDS011;26539;51.064;6.346;2023-05-10T08:25:28;33.50;;;19.30;;
5217;SDS011;26539;51.064;6.346;2023-05-10T08:27:54;29.30;;;18.03;;
5217;SDS011;26539;51.064;6.346;2023-05-10T08:30:20;28.53;;;18.90;;
5217;SDS011;26539;51.064;6.346;2023-05-10T08:32:45;27.20;;;18.90;;
5217;SDS011;26539;51.064;6.346;2023-05-10T08:35:11;27.50;;;17.33;;
5217;SDS011;26539;51.064;6.346;2023-05-10T08:37:36;29.57;;;20.47;;
5217;SDS011;26539;51.064;6.346;2023-05-10T08:40:02;24.23;;;17.07;;
5217;SDS011;26539;51.064;6.346;2023-05-10T08:42:28;27.37;;;18.50;;
5217;SDS011;26539;51.064;6.346;2023-05-10T08:44:59;25.33;;;18.17;;
5217;SDS011;26539;51.064;6.346;2023-05-10T08:47:26;26.53;;;18.27;;
5217;SDS011;26539;51.064;6.346;2023-05-10T08:49:52;23.97;;;17.73;;
5217;SDS011;26539;51.064;6.346;2023-05-10T08:52:19;29.60;;;18.33;;
5217;SDS011;26539;51.064;6.346;2023-05-10T08:54:46;24.13;;;16.43;;
5217;SDS011;26539;51.064;6.346;2023-05-10T08:57:12;22.60;;;17.47;;
5217;SDS011;26539;51.064;6.346;2023-05-10T08:59:37;23.33;;;17.57;;
5217;SDS011;26539;51.064;6.346;2023-05-10T09:02:04;22.10;;;16.90;;
5217;SDS011;26539;51.064;6.346;2023-05-10T09:04:30;28.83;;;17.50;;
5217;SDS011;26539;51.064;6.346;2023-05-10T09:06:56;24.70;;;18.33;;
5217;SDS011;26539;51.064;6.346;2023-05-10T09:09:22;26.07;;;17.90;;
5217;SDS011;26539;51.064;6.346;2023-05-10T09:11:50;26.80;;;17.37;;
5217;SDS011;26539;51.064;6.346;2023-05-10T09:14:16;27.30;;;18.63;;
5217;SDS011;26539;51.064;6.346;2023-05-10T09:16:43;19.83;;;13.80;;
5217;SDS011;26539;51.064;6.346;2023-05-10T09:19:09;20.53;;;14.53;;
5217;SDS011;26539;51.064;6.346;2023-05-10T09:21:35;19.47;;;13.43;;
5217;SDS011;26539;51.064;6.346;2023-05-10T09:24:04;19.33;;;14.37;;
5217;SDS011;26539;51.064;6.346;2023-05-10T09:26:30;19.17;;;12.90;;
5217;SDS011;26539;51.064;6.346;2023-05-10T09:28:57;18.30;;;13.37;;
5217;SDS011;26539;51.064;6.346;2023-05-10T09:31:23;15.97;;;11.90;;
5217;SDS011;26539;51.064;6.346;2023-05-10T09:33:51;13.73;;;9.70;;
5217;SDS011;26539;51.064;6.346;2023-05-10T09:36:16;13.73;;;10.40;;
5217;SDS011;26539;51.064;6.346;2023-05-10T09:38:49;14.53;;;10.23;;
5217;SDS011;26539;51.064;6.346;2023-05-10T09:41:23;14.63;;;9.77;;
5217;SDS011;26539;51.064;6.346;2023-05-10T09:43:50;14.80;;;10.37;;
5217;SDS011;26539;51.064;6.346;2023-05-10T09:46:19;14.23;;;9.37;;
5217;SDS011;26539;51.064;6.346;2023-05-10T09:48:46;13.97;;;11.07;;
5217;SDS011;26539;51.064;6.346;2023-05-10T09:51:22;20.17;;;10.83;;
5217;SDS011;26539;51.064;6.346;2023-05-10T09:53:50;14.17;;;10.00;;
5217;SDS011;26539;51.064;6.346;2023-05-10T09:56:40;14.10;;;9.70;;
5217;SDS011;26539;51.064;6.346;2023-05-10T09:59:10;16.73;;;10.90;;
5217;SDS011;26539;51.064;6.346;2023-05-10T10:01:37;13.87;;;10.33;;
5217;SDS011;26539;51.064;6.346;2023-05-10T10:04:08;13.03;;;8.93;;
5217;SDS011;26539;51.064;6.346;2023-05-10T10:06:35;14.57;;;10.93;;
5217;SDS011;26539;51.064;6.346;2023-05-10T10:09:02;15.37;;;12.17;;
5217;SDS011;26539;51.064;6.346;2023-05-10T10:11:28;15.00;;;10.70;;
5217;SDS011;26539;51.064;6.346;2023-05-10T10:13:53;17.50;;;11.87;;
5217;SDS011;26539;51.064;6.346;2023-05-10T10:16:20;15.97;;;11.30;;
5217;SDS011;26539;51.064;6.346;2023-05-10T10:18:46;15.67;;;13.20;;
5217;SDS011;26539;51.064;6.346;2023-05-10T10:21:13;16.60;;;11.40;;
5217;SDS011;26539;51.064;6.346;2023-05-10T10:23:40;14.87;;;11.27;;
5217;SDS011;26539;51.064;6.346;2023-05-10T10:26:05;12.57;;;10.37;;
5217;SDS011;26539;51.064;6.346;2023-05-10T10:34:28;12.80;;;9.73;;
5217;SDS011;26539;51.064;6.346;2023-05-10T10:36:55;10.33;;;8.90;;
5217;SDS011;26539;51.064;6.346;2023-05-10T10:39:22;10.03;;;8.60;;
5217;SDS011;26539;51.064;6.346;2023-05-10T10:41:55;12.77;;;9.17;;
5217;SDS011;26539;51.064;6.346;2023-05-10T10:44:23;13.43;;;9.37;;
5217;SDS011;26539;51.064;6.346;2023-05-10T10:49:37;10.30;;;7.97;;
5217;SDS011;26539;51.064;6.346;2023-05-10T10:52:22;12.17;;;9.10;;
5217;SDS011;26539;51.064;6.346;2023-05-10T10:55:10;10.53;;;8.53;;
5217;SDS011;26539;51.064;6.346;2023-05-10T11:00:19;8.57;;;7.67;;
5217;SDS011;26539;51.064;6.346;2023-05-10T11:02:48;12.40;;;7.40;;
5217;SDS011;26539;51.064;6.346;2023-05-10T11:10:33;10.43;;;7.90;;
5217;SDS011;26539;51.064;6.346;2023-05-10T11:13:02;8.70;;;7.53;;
5217;SDS011;26539;51.064;6.346;2023-05-10T11:15:33;8.73;;;6.53;;
5217;SDS011;26539;51.064;6.346;2023-05-10T11:18:16;8.37;;;6.87;;
5217;SDS011;26539;51.064;6.346;2023-05-10T11:20:43;9.30;;;6.90;;
5217;SDS011;26539;51.064;6.346;2023-05-10T11:23:12;7.40;;;6.60;;
5217;SDS011;26539;51.064;6.346;2023-05-10T11:25:41;8.40;;;6.30;;
5217;SDS011;26539;51.064;6.346;2023-05-10T11:28:08;7.57;;;6.57;;
5217;SDS011;26539;51.064;6.346;2023-05-10T11:30:34;10.60;;;5.97;;
5217;SDS011;26539;51.064;6.346;2023-05-10T11:32:59;7.90;;;5.57;;
5217;SDS011;26539;51.064;6.346;2023-05-10T11:35:27;6.30;;;5.70;;
5217;SDS011;26539;51.064;6.346;2023-05-10T11:37:52;7.20;;;6.03;;
5217;SDS011;26539;51.064;6.346;2023-05-10T11:40:18;5.63;;;4.53;;
5217;SDS011;26539;51.064;6.346;2023-05-10T11:42:44;5.97;;;5.00;;
5217;SDS011;26539;51.064;6.346;2023-05-10T11:45:10;6.17;;;5.40;;
5217;SDS011;26539;51.064;6.346;2023-05-10T11:47:36;5.90;;;5.10;;
5217;SDS011;26539;51.064;6.346;2023-05-10T11:50:02;6.60;;;5.70;;
5217;SDS011;26539;51.064;6.346;2023-05-10T11:52:27;5.67;;;5.07;;
5217;SDS011;26539;51.064;6.346;2023-05-10T11:54:54;6.00;;;5.37;;
5217;SDS011;26539;51.064;6.346;2023-05-10T11:57:20;7.57;;;6.03;;
5217;SDS011;26539;51.064;6.346;2023-05-10T11:59:53;6.60;;;5.43;;
5217;SDS011;26539;51.064;6.346;2023-05-10T12:02:20;6.13;;;5.53;;
5217;SDS011;26539;51.064;6.346;2023-05-10T12:04:46;8.10;;;5.50;;
5217;SDS011;26539;51.064;6.346;2023-05-10T12:07:12;6.20;;;5.20;;
5217;SDS011;26539;51.064;6.346;2023-05-10T12:09:42;6.30;;;5.67;;
5217;SDS011;26539;51.064;6.346;2023-05-10T12:12:09;5.90;;;5.30;;
5217;SDS011;26539;51.064;6.346;2023-05-10T12:14:35;6.40;;;5.73;;
5217;SDS011;26539;51.064;6.346;2023-05-10T12:17:00;5.40;;;4.90;;
5217;SDS011;26539;51.064;6.346;2023-05-10T12:19:26;6.03;;;4.63;;
5217;SDS011;26539;51.064;6.346;2023-05-10T12:21:51;6.73;;;5.60;;
5217;SDS011;26539;51.064;6.346;2023-05-10T12:24:17;5.50;;;4.87;;
5217;SDS011;26539;51.064;6.346;2023-05-10T12:26:45;5.67;;;5.07;;
5217;SDS011;26539;51.064;6.346;2023-05-10T12:29:19;7.93;;;5.07;;
5217;SDS011;26539;51.064;6.346;2023-05-10T12:34:26;7.00;;;5.03;;
5217;SDS011;26539;51.064;6.346;2023-05-10T12:36:59;6.57;;;5.20;;
5217;SDS011;26539;51.064;6.346;2023-05-10T12:39:25;6.23;;;4.80;;
5217;SDS011;26539;51.064;6.346;2023-05-10T12:41:51;5.23;;;4.10;;
5217;SDS011;26539;51.064;6.346;2023-05-10T12:44:17;6.90;;;5.27;;
5217;SDS011;26539;51.064;6.346;2023-05-10T12:46:43;6.10;;;4.80;;
5217;SDS011;26539;51.064;6.346;2023-05-10T12:49:08;5.53;;;5.03;;
5217;SDS011;26539;51.064;6.346;2023-05-10T12:51:34;8.40;;;5.23;;
5217;SDS011;26539;51.064;6.346;2023-05-10T12:54:00;6.30;;;5.40;;
5217;SDS011;26539;51.064;6.346;2023-05-10T12:56:25;5.10;;;4.60;;
5217;SDS011;26539;51.064;6.346;2023-05-10T12:58:51;5.53;;;4.80;;
5217;SDS011;26539;51.064;6.346;2023-05-10T13:01:16;5.97;;;3.93;;
5217;SDS011;26539;51.064;6.346;2023-05-10T13:03:42;6.07;;;4.47;;
5217;SDS011;26539;51.064;6.346;2023-05-10T13:06:10;4.20;;;3.80;;
5217;SDS011;26539;51.064;6.346;2023-05-10T13:08:36;4.67;;;4.10;;
5217;SDS011;26539;51.064;6.346;2023-05-10T13:11:01;4.30;;;3.90;;
5217;SDS011;26539;51.064;6.346;2023-05-10T13:13:27;3.90;;;3.60;;
5217;SDS011;26539;51.064;6.346;2023-05-10T13:15:53;6.80;;;5.73;;
5217;SDS011;26539;51.064;6.346;2023-05-10T13:18:19;5.07;;;4.07;;
5217;SDS011;26539;51.064;6.346;2023-05-10T13:20:44;4.93;;;4.40;;
5217;SDS011;26539;51.064;6.346;2023-05-10T13:23:10;5.03;;;4.53;;
5217;SDS011;26539;51.064;6.346;2023-05-10T13:25:35;4.43;;;3.90;;
5217;SDS011;26539;51.064;6.346;2023-05-10T13:28:01;5.80;;;4.20;;
5217;SDS011;26539;51.064;6.346;2023-05-10T13:30:27;5.17;;;4.37;;
5217;SDS011;26539;51.064;6.346;2023-05-10T13:32:53;6.93;;;4.53;;
5217;SDS011;26539;51.064;6.346;2023-05-10T13:35:19;7.30;;;4.60;;
5217;SDS011;26539;51.064;6.346;2023-05-10T13:37:45;4.87;;;4.20;;
5217;SDS011;26539;51.064;6.346;2023-05-10T13:40:10;4.43;;;3.87;;
5217;SDS011;26539;51.064;6.346;2023-05-10T13:42:36;5.67;;;4.37;;
5217;SDS011;26539;51.064;6.346;2023-05-10T13:45:02;5.97;;;4.80;;
5217;SDS011;26539;51.064;6.346;2023-05-10T13:47:28;6.17;;;4.07;;
5217;SDS011;26539;51.064;6.346;2023-05-10T13:49:53;6.73;;;5.53;;
5217;SDS011;26539;51.064;6.346;2023-05-10T13:52:19;6.07;;;5.50;;
5217;SDS011;26539;51.064;6.346;2023-05-10T13:54:44;6.93;;;6.20;;
5217;SDS011;26539;51.064;6.346;2023-05-10T13:57:10;5.87;;;5.27;;
5217;SDS011;26539;51.064;6.346;2023-05-10T13:59:38;8.67;;;6.50;;
5217;SDS011;26539;51.064;6.346;2023-05-10T14:02:04;7.37;;;6.60;;
5217;SDS011;26539;51.064;6.346;2023-05-10T14:04:30;6.40;;;5.80;;
5217;SDS011;26539;51.064;6.346;2023-05-10T14:06:56;7.47;;;6.67;;
5217;SDS011;26539;51.064;6.346;2023-05-10T14:09:22;7.97;;;6.30;;
5217;SDS011;26539;51.064;6.346;2023-05-10T14:11:47;7.60;;;6.57;;
5217;SDS011;26539;51.064;6.346;2023-05-10T14:14:13;6.20;;;5.43;;
5217;SDS011;26539;51.064;6.346;2023-05-10T14:16:41;6.67;;;5.50;;
5217;SDS011;26539;51.064;6.346;2023-05-10T14:19:08;6.10;;;5.40;;
5217;SDS011;26539;51.064;6.346;2023-05-10T14:21:34;6.60;;;5.80;;
5217;SDS011;26539;51.064;6.346;2023-05-10T14:23:59;7.33;;;5.17;;
5217;SDS011;26539;51.064;6.346;2023-05-10T14:26:25;5.80;;;4.43;;
5217;SDS011;26539;51.064;6.346;2023-05-10T14:28:52;4.30;;;3.90;;
5217;SDS011;26539;51.064;6.346;2023-05-10T14:31:17;5.27;;;4.40;;
5217;SDS011;26539;51.064;6.346;2023-05-10T14:33:45;4.70;;;4.10;;
5217;SDS011;26539;51.064;6.346;2023-05-10T14:36:13;5.27;;;4.50;;
5217;SDS011;26539;51.064;6.346;2023-05-10T14:38:39;4.90;;;4.20;;
5217;SDS011;26539;51.064;6.346;2023-05-10T14:41:05;8.03;;;4.90;;
5217;SDS011;26539;51.064;6.346;2023-05-10T14:43:30;4.67;;;4.10;;
5217;SDS011;26539;51.064;6.346;2023-05-10T14:45:56;4.10;;;3.60;;
5217;SDS011;26539;51.064;6.346;2023-05-10T14:48:22;4.67;;;3.70;;
5217;SDS011;26539;51.064;6.346;2023-05-10T14:50:47;4.83;;;4.20;;
5217;SDS011;26539;51.064;6.346;2023-05-10T14:53:14;5.17;;;4.43;;
5217;SDS011;26539;51.064;6.346;2023-05-10T14:55:40;5.70;;;4.83;;
5217;SDS011;26539;51.064;6.346;2023-05-10T14:58:06;8.43;;;3.90;;
5217;SDS011;26539;51.064;6.346;2023-05-10T15:00:31;3.70;;;3.30;;
5217;SDS011;26539;51.064;6.346;2023-05-10T15:02:57;4.33;;;3.67;;
5217;SDS011;26539;51.064;6.346;2023-05-10T15:05:22;6.30;;;4.57;;
5217;SDS011;26539;51.064;6.346;2023-05-10T15:07:48;6.40;;;4.10;;
5217;SDS011;26539;51.064;6.346;2023-05-10T15:10:14;5.20;;;4.43;;
5217;SDS011;26539;51.064;6.346;2023-05-10T15:12:39;4.00;;;3.60;;
5217;SDS011;26539;51.064;6.346;2023-05-10T15:15:05;6.53;;;3.30;;
5217;SDS011;26539;51.064;6.346;2023-05-10T15:17:32;4.17;;;3.50;;